Terminal Aerodrome Forecast
Issued by NWS Upton, NY

Home | Current Version | Previous Version | Text Only | Print | Product List | Glossary On
Versions: 1 2 3 4 5 6 7 8 9 10 11 12 13 14 15 16 17 18 19 20 21 22 23 24 25 26 27 28 29 30 31 32 33 34
000
FTUS41 KOKX 231942 AAA
TAFEWR
TAF AMD
KEWR 231942Z 2320/2424 22014G20KT P6SM SCT025 BKN050
      TEMPO 2320/2322 BKN025
     FM232200 23013G20KT P6SM SCT030 BKN040
      TEMPO 2322/2402 4SM TSRA BKN030CB
     FM240700 24010KT 5SM -SHRA BR SCT025 BKN050
      TEMPO 2409/2412 3SM +SHRA BR BKN025
     FM241300 29014G22KT P6SM SCT050=

USA.gov is the U.S. government's official web portal to all federal, state and local government web resources and services.